sensor_id;sensor_type;location;lat;lon;timestamp;pressure;altitude;pressure_sealevel;temperature;humidity
59391;BME280;53405;57.012;40.984;2023-06-10T00:00:03;100523.97;;;9.65;73.09
59391;BME280;53405;57.012;40.984;2023-06-10T00:02:39;100468.97;;;9.37;72.54
59391;BME280;53405;57.012;40.984;2023-06-10T00:05:07;100521.47;;;9.55;73.64
59391;BME280;53405;57.012;40.984;2023-06-10T00:07:36;100488.34;;;9.36;73.12
59391;BME280;53405;57.012;40.984;2023-06-10T00:10:09;100529.16;;;9.49;73.47
59391;BME280;53405;57.012;40.984;2023-06-10T00:12:38;100530.94;;;9.40;74.25
59391;BME280;53405;57.012;40.984;2023-06-10T00:15:08;100521.88;;;9.43;73.55
59391;BME280;53405;57.012;40.984;2023-06-10T00:17:36;100537.81;;;9.41;74.42
59391;BME280;53405;57.012;40.984;2023-06-10T00:20:08;100516.25;;;9.29;74.59
59391;BME280;53405;57.012;40.984;2023-06-10T00:22:38;100533.72;;;9.38;74.31
59391;BME280;53405;57.012;40.984;2023-06-10T00:25:07;100532.09;;;9.46;73.63
59391;BME280;53405;57.012;40.984;2023-06-10T00:27:35;100537.81;;;9.41;74.10
59391;BME280;53405;57.012;40.984;2023-06-10T00:30:03;100543.28;;;9.48;73.59
59391;BME280;53405;57.012;40.984;2023-06-10T00:32:35;100543.97;;;9.50;73.37
59391;BME280;53405;57.012;40.984;2023-06-10T00:35:06;100537.09;;;9.22;74.16
59391;BME280;53405;57.012;40.984;2023-06-10T00:37:34;100543.94;;;9.15;74.72
59391;BME280;53405;57.012;40.984;2023-06-10T00:40:04;100538.06;;;9.21;74.19
59391;BME280;53405;57.012;40.984;2023-06-10T00:42:33;100545.59;;;9.16;74.84
59391;BME280;53405;57.012;40.984;2023-06-10T00:45:05;100540.94;;;9.10;75.45
59391;BME280;53405;57.012;40.984;2023-06-10T00:47:33;100553.16;;;9.19;75.00
59391;BME280;53405;57.012;40.984;2023-06-10T00:50:03;100551.16;;;9.13;74.26
59391;BME280;53405;57.012;40.984;2023-06-10T00:52:32;100552.13;;;9.12;74.16
59391;BME280;53405;57.012;40.984;2023-06-10T00:55:02;100558.75;;;8.98;74.62
59391;BME280;53405;57.012;40.984;2023-06-10T00:57:29;100560.81;;;8.86;74.88
59391;BME280;53405;57.012;40.984;2023-06-10T00:59:58;100564.25;;;8.87;74.91
59391;BME280;53405;57.012;40.984;2023-06-10T01:02:27;100561.34;;;8.90;74.17
59391;BME280;53405;57.012;40.984;2023-06-10T01:04:59;100564.16;;;8.97;73.45
59391;BME280;53405;57.012;40.984;2023-06-10T01:10:17;100564.22;;;8.79;73.76
59391;BME280;53405;57.012;40.984;2023-06-10T01:12:56;100570.72;;;8.75;74.34
59391;BME280;53405;57.012;40.984;2023-06-10T01:15:27;100578.84;;;8.81;74.38
59391;BME280;53405;57.012;40.984;2023-06-10T01:17:57;100577.84;;;8.82;73.92
59391;BME280;53405;57.012;40.984;2023-06-10T01:20:26;100584.56;;;8.77;74.09
59391;BME280;53405;57.012;40.984;2023-06-10T01:23:00;100579.31;;;8.77;73.37
59391;BME280;53405;57.012;40.984;2023-06-10T01:25:30;100584.75;;;8.83;72.19
59391;BME280;53405;57.012;40.984;2023-06-10T01:33:13;100591.13;;;8.81;71.05
59391;BME280;53405;57.012;40.984;2023-06-10T01:35:47;100587.63;;;8.72;72.23
59391;BME280;53405;57.012;40.984;2023-06-10T01:38:15;100601.84;;;8.88;70.50
59391;BME280;53405;57.012;40.984;2023-06-10T01:40:45;100590.63;;;8.77;69.08
59391;BME280;53405;57.012;40.984;2023-06-10T01:43:13;100596.63;;;8.70;71.47
59391;BME280;53405;57.012;40.984;2023-06-10T01:45:44;100605.16;;;8.72;70.50
59391;BME280;53405;57.012;40.984;2023-06-10T01:48:12;100582.81;;;8.49;70.21
59391;BME280;53405;57.012;40.984;2023-06-10T01:50:40;100577.50;;;8.59;68.35
59391;BME280;53405;57.012;40.984;2023-06-10T01:53:08;100575.19;;;8.56;69.66
59391;BME280;53405;57.012;40.984;2023-06-10T01:55:36;100581.09;;;8.58;67.83
59391;BME280;53405;57.012;40.984;2023-06-10T01:58:04;100611.63;;;8.77;67.21
59391;BME280;53405;57.012;40.984;2023-06-10T02:00:31;100624.31;;;8.82;68.47
59391;BME280;53405;57.012;40.984;2023-06-10T02:03:01;100622.59;;;8.73;69.74
59391;BME280;53405;57.012;40.984;2023-06-10T02:05:29;100631.53;;;8.80;68.18
59391;BME280;53405;57.012;40.984;2023-06-10T02:07:57;100625.88;;;8.75;67.82
59391;BME280;53405;57.012;40.984;2023-06-10T02:10:25;100635.72;;;8.73;69.33
59391;BME280;53405;57.012;40.984;2023-06-10T02:12:53;100631.38;;;8.81;67.57
59391;BME280;53405;57.012;40.984;2023-06-10T02:15:21;100631.28;;;8.73;68.69
59391;BME280;53405;57.012;40.984;2023-06-10T02:17:49;100650.09;;;8.68;68.37
59391;BME280;53405;57.012;40.984;2023-06-10T02:20:18;100640.00;;;8.74;69.01
59391;BME280;53405;57.012;40.984;2023-06-10T02:22:46;100640.06;;;8.82;66.65
59391;BME280;53405;57.012;40.984;2023-06-10T02:25:14;100644.66;;;8.80;67.23
59391;BME280;53405;57.012;40.984;2023-06-10T02:27:42;100649.28;;;8.86;67.27
59391;BME280;53405;57.012;40.984;2023-06-10T02:30:10;100655.53;;;8.85;67.95
59391;BME280;53405;57.012;40.984;2023-06-10T02:32:38;100655.81;;;8.82;68.57
59391;BME280;53405;57.012;40.984;2023-06-10T02:35:06;100651.91;;;8.86;66.64
59391;BME280;53405;57.012;40.984;2023-06-10T02:37:34;100662.94;;;8.90;66.55
59391;BME280;53405;57.012;40.984;2023-06-10T02:40:02;100659.72;;;8.96;66.96
59391;BME280;53405;57.012;40.984;2023-06-10T02:42:31;100663.69;;;9.00;65.54
59391;BME280;53405;57.012;40.984;2023-06-10T02:44:59;100674.50;;;8.97;65.34
59391;BME280;53405;57.012;40.984;2023-06-10T02:47:39;100661.16;;;8.90;66.22
59391;BME280;53405;57.012;40.984;2023-06-10T02:50:09;100663.69;;;9.00;65.89
59391;BME280;53405;57.012;40.984;2023-06-10T02:52:57;100663.69;;;9.00;66.08
59391;BME280;53405;57.012;40.984;2023-06-10T02:55:25;100671.31;;;9.11;66.15
59391;BME280;53405;57.012;40.984;2023-06-10T02:57:59;100680.56;;;9.15;65.31
59391;BME280;53405;57.012;40.984;2023-06-10T03:00:28;100680.50;;;9.07;66.60
59391;BME280;53405;57.012;40.984;2023-06-10T03:02:56;100680.56;;;9.15;66.33
59391;BME280;53405;57.012;40.984;2023-06-10T03:05:30;100675.53;;;9.22;64.02
59391;BME280;53405;57.012;40.984;2023-06-10T03:08:01;100694.38;;;9.17;65.50
59391;BME280;53405;57.012;40.984;2023-06-10T03:10:30;100684.63;;;9.28;65.22
59391;BME280;53405;57.012;40.984;2023-06-10T03:13:01;100692.88;;;9.33;63.23
59391;BME280;53405;57.012;40.984;2023-06-10T03:15:30;100679.75;;;9.15;65.67
59391;BME280;53405;57.012;40.984;2023-06-10T03:18:02;100697.31;;;9.32;63.39
59391;BME280;53405;57.012;40.984;2023-06-10T03:20:30;100708.41;;;9.26;65.85
59391;BME280;53405;57.012;40.984;2023-06-10T03:23:00;100701.97;;;9.38;63.10
59391;BME280;53405;57.012;40.984;2023-06-10T03:25:28;100707.56;;;9.44;65.50
59391;BME280;53405;57.012;40.984;2023-06-10T03:28:01;100713.44;;;9.55;63.32
59391;BME280;53405;57.012;40.984;2023-06-10T03:30:29;100685.19;;;9.39;64.34
59391;BME280;53405;57.012;40.984;2023-06-10T03:32:58;100715.97;;;9.47;65.29
59391;BME280;53405;57.012;40.984;2023-06-10T03:35:29;100715.94;;;9.65;62.87
59391;BME280;53405;57.012;40.984;2023-06-10T03:37:57;100701.50;;;9.69;61.65
59391;BME280;53405;57.012;40.984;2023-06-10T03:40:25;100717.13;;;9.71;61.92
59391;BME280;53405;57.012;40.984;2023-06-10T03:42:53;100713.06;;;9.76;60.49
59391;BME280;53405;57.012;40.984;2023-06-10T03:45:21;100716.66;;;9.75;64.56
59391;BME280;53405;57.012;40.984;2023-06-10T03:47:50;100720.69;;;9.88;60.05
59391;BME280;53405;57.012;40.984;2023-06-10T03:50:22;100715.47;;;9.96;59.86
59391;BME280;53405;57.012;40.984;2023-06-10T03:52:51;100722.53;;;9.95;58.71
59391;BME280;53405;57.012;40.984;2023-06-10T03:55:23;100724.88;;;9.99;60.54
59391;BME280;53405;57.012;40.984;2023-06-10T03:57:50;100727.38;;;10.08;59.55
59391;BME280;53405;57.012;40.984;2023-06-10T04:00:24;100739.59;;;10.18;59.74
59391;BME280;53405;57.012;40.984;2023-06-10T04:02:52;100708.78;;;10.10;61.98
59391;BME280;53405;57.012;40.984;2023-06-10T04:05:35;100724.53;;;10.28;59.61
59391;BME280;53405;57.012;40.984;2023-06-10T04:08:03;100736.69;;;10.29;58.93
59391;BME280;53405;57.012;40.984;2023-06-10T04:10:30;100741.50;;;10.34;60.23
59391;BME280;53405;57.012;40.984;2023-06-10T04:13:00;100738.56;;;10.37;57.95
59391;BME280;53405;57.012;40.984;2023-06-10T04:15:33;100734.09;;;10.37;58.31
59391;BME280;53405;57.012;40.984;2023-06-10T04:18:06;100744.13;;;10.34;60.18
59391;BME280;53405;57.012;40.984;2023-06-10T04:20:34;100733.06;;;10.30;59.58
59391;BME280;53405;57.012;40.984;2023-06-10T04:23:02;100744.00;;;10.43;58.65
59391;BME280;53405;57.012;40.984;2023-06-10T04:25:31;100742.06;;;10.45;58.16
59391;BME280;53405;57.012;40.984;2023-06-10T04:27:59;100745.69;;;10.53;58.85
59391;BME280;53405;57.012;40.984;2023-06-10T04:30:27;100745.06;;;10.59;59.36
59391;BME280;53405;57.012;40.984;2023-06-10T04:32:56;100737.66;;;10.62;59.01
59391;BME280;53405;57.012;40.984;2023-06-10T04:35:24;100744.75;;;10.70;56.79
59391;BME280;53405;57.012;40.984;2023-06-10T04:37:58;100746.25;;;10.73;59.14
59391;BME280;53405;57.012;40.984;2023-06-10T04:40:26;100739.66;;;10.69;59.41
59391;BME280;53405;57.012;40.984;2023-06-10T04:42:54;100735.59;;;10.82;56.69
59391;BME280;53405;57.012;40.984;2023-06-10T04:45:22;100747.63;;;10.85;58.41
59391;BME280;53405;57.012;40.984;2023-06-10T04:47:50;100745.31;;;10.98;57.10
59391;BME280;53405;57.012;40.984;2023-06-10T04:50:17;100744.34;;;10.91;55.12
59391;BME280;53405;57.012;40.984;2023-06-10T04:52:45;100756.84;;;10.89;55.20
59391;BME280;53405;57.012;40.984;2023-06-10T04:55:16;100745.47;;;10.80;54.59
59391;BME280;53405;57.012;40.984;2023-06-10T04:57:46;100755.88;;;10.98;52.22
59391;BME280;53405;57.012;40.984;2023-06-10T05:00:15;100768.72;;;11.01;54.97
59391;BME280;53405;57.012;40.984;2023-06-10T05:02:43;100759.00;;;11.02;51.06
59391;BME280;53405;57.012;40.984;2023-06-10T05:05:12;100748.13;;;10.97;52.07
59391;BME280;53405;57.012;40.984;2023-06-10T05:07:40;100764.16;;;11.12;53.79
59391;BME280;53405;57.012;40.984;2023-06-10T05:10:08;100750.63;;;11.15;53.99
59391;BME280;53405;57.012;40.984;2023-06-10T05:12:36;100767.97;;;11.34;54.47
59391;BME280;53405;57.012;40.984;2023-06-10T05:15:06;100765.66;;;11.39;54.80
59391;BME280;53405;57.012;40.984;2023-06-10T05:17:34;100741.44;;;11.35;51.16
59391;BME280;53405;57.012;40.984;2023-06-10T05:20:05;100762.19;;;11.47;51.74
59391;BME280;53405;57.012;40.984;2023-06-10T05:22:34;100770.75;;;11.65;51.74
59391;BME280;53405;57.012;40.984;2023-06-10T05:25:02;100772.22;;;11.68;51.08
59391;BME280;53405;57.012;40.984;2023-06-10T05:27:30;100770.28;;;11.70;50.59
59391;BME280;53405;57.012;40.984;2023-06-10T05:29:58;100771.75;;;11.64;50.38
59391;BME280;53405;57.012;40.984;2023-06-10T05:32:26;100773.06;;;11.68;51.31
59391;BME280;53405;57.012;40.984;2023-06-10T05:34:54;100769.75;;;11.74;51.47
59391;BME280;53405;57.012;40.984;2023-06-10T05:37:22;100775.50;;;11.86;49.16
59391;BME280;53405;57.012;40.984;2023-06-10T05:39:50;100780.97;;;11.85;49.65
59391;BME280;53405;57.012;40.984;2023-06-10T05:42:17;100778.81;;;11.80;49.54
59391;BME280;53405;57.012;40.984;2023-06-10T05:44:45;100777.69;;;11.83;50.29
59391;BME280;53405;57.012;40.984;2023-06-10T05:47:13;100753.59;;;11.69;51.39
59391;BME280;53405;57.012;40.984;2023-06-10T05:49:41;100786.75;;;12.05;49.51
59391;BME280;53405;57.012;40.984;2023-06-10T05:52:09;100752.78;;;11.93;49.25
59391;BME280;53405;57.012;40.984;2023-06-10T05:54:36;100793.16;;;12.19;49.14
59391;BME280;53405;57.012;40.984;2023-06-10T05:57:05;100785.03;;;12.28;49.70
59391;BME280;53405;57.012;40.984;2023-06-10T05:59:33;100781.25;;;12.23;46.42
59391;BME280;53405;57.012;40.984;2023-06-10T06:02:01;100782.44;;;12.20;47.21
59391;BME280;53405;57.012;40.984;2023-06-10T06:04:29;100766.06;;;12.17;47.81
59391;BME280;53405;57.012;40.984;2023-06-10T06:06:56;100765.72;;;12.28;49.45
59391;BME280;53405;57.012;40.984;2023-06-10T06:09:24;100797.97;;;12.55;50.94
59391;BME280;53405;57.012;40.984;2023-06-10T06:11:52;100791.31;;;12.67;47.43
59391;BME280;53405;57.012;40.984;2023-06-10T06:14:20;100797.28;;;12.61;47.83
59391;BME280;53405;57.012;40.984;2023-06-10T06:16:47;100797.69;;;12.41;49.24
59391;BME280;53405;57.012;40.984;2023-06-10T06:19:18;100781.38;;;12.38;48.73
59391;BME280;53405;57.012;40.984;2023-06-10T06:21:46;100791.75;;;12.47;49.55
59391;BME280;53405;57.012;40.984;2023-06-10T06:24:15;100794.81;;;12.68;50.98
59391;BME280;53405;57.012;40.984;2023-06-10T06:26:43;100787.09;;;12.89;47.28
59391;BME280;53405;57.012;40.984;2023-06-10T06:29:10;100797.06;;;13.10;47.56
59391;BME280;53405;57.012;40.984;2023-06-10T06:31:38;100804.09;;;13.18;47.72
59391;BME280;53405;57.012;40.984;2023-06-10T06:34:06;100815.81;;;13.24;46.83
59391;BME280;53405;57.012;40.984;2023-06-10T06:36:33;100819.03;;;13.11;46.52
59391;BME280;53405;57.012;40.984;2023-06-10T06:39:01;100801.53;;;12.70;48.56
59391;BME280;53405;57.012;40.984;2023-06-10T06:41:29;100803.59;;;12.60;48.73
59391;BME280;53405;57.012;40.984;2023-06-10T06:43:57;100807.81;;;12.77;48.71
59391;BME280;53405;57.012;40.984;2023-06-10T06:46:30;100806.91;;;12.93;46.21
59391;BME280;53405;57.012;40.984;2023-06-10T06:49:01;100810.91;;;13.12;45.99
59391;BME280;53405;57.012;40.984;2023-06-10T06:51:28;100800.69;;;13.09;45.40
59391;BME280;53405;57.012;40.984;2023-06-10T06:53:59;100807.22;;;13.22;47.26
59391;BME280;53405;57.012;40.984;2023-06-10T06:56:28;100809.88;;;13.22;44.75
59391;BME280;53405;57.012;40.984;2023-06-10T06:58:57;100815.50;;;13.18;45.11
59391;BME280;53405;57.012;40.984;2023-06-10T07:01:28;100814.16;;;13.23;42.74
59391;BME280;53405;57.012;40.984;2023-06-10T07:03:58;100822.13;;;13.14;44.64
59391;BME280;53405;57.012;40.984;2023-06-10T07:06:25;100822.00;;;13.08;47.89
59391;BME280;53405;57.012;40.984;2023-06-10T07:08:53;100794.06;;;13.13;43.52
59391;BME280;53405;57.012;40.984;2023-06-10T07:11:21;100811.78;;;13.36;45.24
59391;BME280;53405;57.012;40.984;2023-06-10T07:13:49;100795.91;;;13.36;43.94
59391;BME280;53405;57.012;40.984;2023-06-10T07:16:17;100821.00;;;13.63;41.99
59391;BME280;53405;57.012;40.984;2023-06-10T07:18:44;100826.00;;;13.81;42.11
59391;BME280;53405;57.012;40.984;2023-06-10T07:21:12;100832.47;;;13.79;45.10
59391;BME280;53405;57.012;40.984;2023-06-10T07:23:43;100827.00;;;13.80;43.05
59391;BME280;53405;57.012;40.984;2023-06-10T07:26:12;100828.94;;;13.63;44.00
59391;BME280;53405;57.012;40.984;2023-06-10T07:28:41;100809.50;;;13.56;40.22
59391;BME280;53405;57.012;40.984;2023-06-10T07:31:09;100829.78;;;13.64;40.91
59391;BME280;53405;57.012;40.984;2023-06-10T07:33:36;100824.88;;;13.76;40.78
59391;BME280;53405;57.012;40.984;2023-06-10T07:36:06;100786.06;;;13.68;41.48
59391;BME280;53405;57.012;40.984;2023-06-10T07:38:34;100815.53;;;14.03;40.82
59391;BME280;53405;57.012;40.984;2023-06-10T07:41:02;100815.88;;;14.00;44.08
59391;BME280;53405;57.012;40.984;2023-06-10T07:43:30;100822.78;;;14.24;42.06
59391;BME280;53405;57.012;40.984;2023-06-10T07:46:01;100800.38;;;14.26;40.77
59391;BME280;53405;57.012;40.984;2023-06-10T07:48:29;100834.28;;;14.31;42.16
59391;BME280;53405;57.012;40.984;2023-06-10T07:50:56;100837.66;;;14.10;44.12
59391;BME280;53405;57.012;40.984;2023-06-10T07:53:27;100807.78;;;13.63;43.82
59391;BME280;53405;57.012;40.984;2023-06-10T07:55:55;100818.59;;;13.53;42.86
59391;BME280;53405;57.012;40.984;2023-06-10T07:58:23;100834.66;;;13.52;44.52
59391;BME280;53405;57.012;40.984;2023-06-10T08:00:51;100843.41;;;13.76;43.94
59391;BME280;53405;57.012;40.984;2023-06-10T08:03:20;100840.56;;;14.15;38.91
59391;BME280;53405;57.012;40.984;2023-06-10T08:05:50;100843.44;;;14.28;39.01
59391;BME280;53405;57.012;40.984;2023-06-10T08:08:18;100840.69;;;14.37;40.98
59391;BME280;53405;57.012;40.984;2023-06-10T08:10:46;100841.41;;;14.45;39.44
59391;BME280;53405;57.012;40.984;2023-06-10T08:13:14;100858.03;;;14.24;38.80
59391;BME280;53405;57.012;40.984;2023-06-10T08:15:41;100858.06;;;14.01;41.23
59391;BME280;53405;57.012;40.984;2023-06-10T08:18:09;100859.22;;;14.22;39.87
59391;BME280;53405;57.012;40.984;2023-06-10T08:20:37;100858.22;;;14.38;41.09
59391;BME280;53405;57.012;40.984;2023-06-10T08:23:04;100854.97;;;14.66;40.99
59391;BME280;53405;57.012;40.984;2023-06-10T08:25:33;100851.44;;;15.10;38.58
59391;BME280;53405;57.012;40.984;2023-06-10T08:28:00;100856.53;;;15.48;39.70
59391;BME280;53405;57.012;40.984;2023-06-10T08:30:28;100858.81;;;15.72;36.73
59391;BME280;53405;57.012;40.984;2023-06-10T08:32:56;100873.47;;;15.47;39.30
59391;BME280;53405;57.012;40.984;2023-06-10T08:35:24;100882.38;;;15.03;38.68
59391;BME280;53405;57.012;40.984;2023-06-10T08:37:52;100851.28;;;14.37;39.89
59391;BME280;53405;57.012;40.984;2023-06-10T08:40:20;100880.38;;;14.07;41.39
59391;BME280;53405;57.012;40.984;2023-06-10T08:43:10;100879.03;;;14.41;39.07
59391;BME280;53405;57.012;40.984;2023-06-10T08:45:38;100876.41;;;15.15;39.82
59391;BME280;53405;57.012;40.984;2023-06-10T08:48:12;100872.84;;;15.66;37.75
59391;BME280;53405;57.012;40.984;2023-06-10T08:50:44;100878.88;;;15.39;39.14
59391;BME280;53405;57.012;40.984;2023-06-10T08:53:16;100855.34;;;14.77;38.96
59391;BME280;53405;57.012;40.984;2023-06-10T08:55:50;100888.50;;;14.88;38.77
59391;BME280;53405;57.012;40.984;2023-06-10T08:58:20;100878.75;;;15.25;39.58
59391;BME280;53405;57.012;40.984;2023-06-10T09:00:48;100879.19;;;15.87;37.92
59391;BME280;53405;57.012;40.984;2023-06-10T09:03:16;100887.59;;;16.47;36.89
59391;BME280;53405;57.012;40.984;2023-06-10T09:05:47;100887.97;;;16.79;35.51
59391;BME280;53405;57.012;40.984;2023-06-10T09:08:16;100867.94;;;16.76;32.92
59391;BME280;53405;57.012;40.984;2023-06-10T09:10:49;100871.13;;;16.93;33.55
59391;BME280;53405;57.012;40.984;2023-06-10T09:13:18;100893.44;;;16.99;35.62
59391;BME280;53405;57.012;40.984;2023-06-10T09:15:46;100900.63;;;16.70;36.14
59391;BME280;53405;57.012;40.984;2023-06-10T09:18:14;100892.47;;;15.87;36.80
59391;BME280;53405;57.012;40.984;2023-06-10T09:20:43;100865.78;;;15.74;37.07
59391;BME280;53405;57.012;40.984;2023-06-10T09:23:12;100881.88;;;16.43;37.26
59391;BME280;53405;57.012;40.984;2023-06-10T09:25:40;100890.59;;;16.66;34.46
59391;BME280;53405;57.012;40.984;2023-06-10T09:28:15;100884.47;;;17.13;34.07
59391;BME280;53405;57.012;40.984;2023-06-10T09:30:43;100893.56;;;16.84;33.43
59391;BME280;53405;57.012;40.984;2023-06-10T09:33:13;100885.25;;;16.66;34.36
59391;BME280;53405;57.012;40.984;2023-06-10T09:35:49;100863.03;;;17.28;35.00
59391;BME280;53405;57.012;40.984;2023-06-10T09:38:21;100876.66;;;18.00;32.22
59391;BME280;53405;57.012;40.984;2023-06-10T09:40:53;100901.00;;;17.64;33.47
59391;BME280;53405;57.012;40.984;2023-06-10T09:43:22;100899.50;;;16.86;33.79
59391;BME280;53405;57.012;40.984;2023-06-10T09:45:51;100901.56;;;16.56;36.05
59391;BME280;53405;57.012;40.984;2023-06-10T09:48:24;100910.59;;;17.51;34.05
59391;BME280;53405;57.012;40.984;2023-06-10T09:50:52;100907.41;;;17.96;32.11
59391;BME280;53405;57.012;40.984;2023-06-10T09:53:20;100900.84;;;18.32;32.08
59391;BME280;53405;57.012;40.984;2023-06-10T09:55:52;100900.97;;;17.57;34.99
59391;BME280;53405;57.012;40.984;2023-06-10T09:58:42;100905.66;;;16.87;34.71
59391;BME280;53405;57.012;40.984;2023-06-10T10:01:12;100923.44;;;16.01;33.49
59391;BME280;53405;57.012;40.984;2023-06-10T10:03:48;100930.72;;;15.34;38.13
59391;BME280;53405;57.012;40.984;2023-06-10T10:06:19;100928.69;;;15.36;37.37
59391;BME280;53405;57.012;40.984;2023-06-10T10:08:51;100903.50;;;16.40;35.72
59391;BME280;53405;57.012;40.984;2023-06-10T10:11:20;100922.88;;;17.39;33.08
59391;BME280;53405;57.012;40.984;2023-06-10T10:13:51;100929.53;;;18.03;33.33
59391;BME280;53405;57.012;40.984;2023-06-10T10:16:21;100925.22;;;18.42;33.41
59391;BME280;53405;57.012;40.984;2023-06-10T10:18:56;100921.97;;;18.34;29.90
59391;BME280;53405;57.012;40.984;2023-06-10T10:21:31;100926.66;;;17.16;31.86
59391;BME280;53405;57.012;40.984;2023-06-10T10:24:09;100933.31;;;16.36;35.05
59391;BME280;53405;57.012;40.984;2023-06-10T10:26:43;100912.44;;;16.61;34.03
59391;BME280;53405;57.012;40.984;2023-06-10T10:29:29;100922.06;;;17.45;33.20
59391;BME280;53405;57.012;40.984;2023-06-10T10:31:59;100915.38;;;18.36;32.04
59391;BME280;53405;57.012;40.984;2023-06-10T10:34:37;100913.78;;;18.35;30.29
59391;BME280;53405;57.012;40.984;2023-06-10T10:37:13;100929.56;;;17.22;33.03
59391;BME280;53405;57.012;40.984;2023-06-10T10:39:41;100926.94;;;16.58;32.12
59391;BME280;53405;57.012;40.984;2023-06-10T10:42:09;100919.75;;;16.24;32.32
59391;BME280;53405;57.012;40.984;2023-06-10T10:44:38;100919.72;;;15.96;34.48
59391;BME280;53405;57.012;40.984;2023-06-10T10:47:10;100910.91;;;16.80;33.46
59391;BME280;53405;57.012;40.984;2023-06-10T10:49:43;100918.28;;;17.88;33.06
59391;BME280;53405;57.012;40.984;2023-06-10T10:52:12;100924.41;;;18.02;30.65
59391;BME280;53405;57.012;40.984;2023-06-10T10:54:44;100922.09;;;17.65;30.98
59391;BME280;53405;57.012;40.984;2023-06-10T10:59:53;100928.00;;;16.36;34.57
59391;BME280;53405;57.012;40.984;2023-06-10T11:02:43;100935.50;;;17.24;34.10
59391;BME280;53405;57.012;40.984;2023-06-10T11:05:15;100926.50;;;18.13;32.80
59391;BME280;53405;57.012;40.984;2023-06-10T11:07:52;100933.13;;;19.09;28.73
59391;BME280;53405;57.012;40.984;2023-06-10T11:10:56;100935.22;;;19.39;28.71
59391;BME280;53405;57.012;40.984;2023-06-10T11:13:21;100924.03;;;19.56;29.41
59391;BME280;53405;57.012;40.984;2023-06-10T11:15:50;100932.13;;;19.42;29.87
59391;BME280;53405;57.012;40.984;2023-06-10T11:18:34;100943.59;;;18.98;29.71
59391;BME280;53405;57.012;40.984;2023-06-10T11:21:06;100940.00;;;17.92;30.75
59391;BME280;53405;57.012;40.984;2023-06-10T11:23:35;100941.41;;;17.19;30.17
59391;BME280;53405;57.012;40.984;2023-06-10T11:26:43;100943.78;;;16.37;33.93
59391;BME280;53405;57.012;40.984;2023-06-10T11:29:14;100944.53;;;16.88;33.67
59391;BME280;53405;57.012;40.984;2023-06-10T11:31:45;100920.75;;;17.90;32.22
59391;BME280;53405;57.012;40.984;2023-06-10T11:34:13;100940.75;;;18.92;29.73
59391;BME280;53405;57.012;40.984;2023-06-10T11:36:43;100912.56;;;19.48;28.44
59391;BME280;53405;57.012;40.984;2023-06-10T11:39:13;100942.63;;;19.76;29.22
59391;BME280;53405;57.012;40.984;2023-06-10T11:41:45;100947.78;;;18.67;29.92
59391;BME280;53405;57.012;40.984;2023-06-10T11:44:15;100954.25;;;17.64;29.58
59391;BME280;53405;57.012;40.984;2023-06-10T11:46:48;100931.38;;;16.79;30.84
59391;BME280;53405;57.012;40.984;2023-06-10T11:49:16;100941.25;;;16.57;34.75
59391;BME280;53405;57.012;40.984;2023-06-10T11:51:45;100949.06;;;16.94;31.00
59391;BME280;53405;57.012;40.984;2023-06-10T11:54:17;100943.41;;;16.75;32.06
59391;BME280;53405;57.012;40.984;2023-06-10T11:56:46;100947.91;;;17.03;34.57
59391;BME280;53405;57.012;40.984;2023-06-10T11:59:13;100944.72;;;18.10;31.41
59391;BME280;53405;57.012;40.984;2023-06-10T12:01:45;100957.19;;;18.69;29.75
59391;BME280;53405;57.012;40.984;2023-06-10T12:04:14;100951.28;;;17.94;30.36
59391;BME280;53405;57.012;40.984;2023-06-10T12:06:43;100962.44;;;17.07;33.11
59391;BME280;53405;57.012;40.984;2023-06-10T12:09:27;100971.66;;;16.48;32.21
59391;BME280;53405;57.012;40.984;2023-06-10T12:12:01;100956.13;;;16.23;30.83
59391;BME280;53405;57.012;40.984;2023-06-10T12:14:49;100967.03;;;15.70;32.99
59391;BME280;53405;57.012;40.984;2023-06-10T12:17:17;100967.25;;;15.54;34.48
59391;BME280;53405;57.012;40.984;2023-06-10T12:19:46;100952.28;;;16.04;33.83
59391;BME280;53405;57.012;40.984;2023-06-10T12:22:14;100948.38;;;16.85;33.63
59391;BME280;53405;57.012;40.984;2023-06-10T12:25:04;100958.31;;;17.46;31.79
59391;BME280;53405;57.012;40.984;2023-06-10T12:27:35;100954.25;;;17.64;31.72
59391;BME280;53405;57.012;40.984;2023-06-10T12:30:05;100952.63;;;17.08;31.26
59391;BME280;53405;57.012;40.984;2023-06-10T12:32:46;100964.53;;;16.55;34.65
59391;BME280;53405;57.012;40.984;2023-06-10T12:35:18;100964.28;;;16.22;32.83
59391;BME280;53405;57.012;40.984;2023-06-10T12:38:04;100965.53;;;15.83;33.89
59391;BME280;53405;57.012;40.984;2023-06-10T12:40:38;100962.88;;;15.46;33.74
59391;BME280;53405;57.012;40.984;2023-06-10T12:43:09;100971.69;;;15.32;35.20
59391;BME280;53405;57.012;40.984;2023-06-10T12:45:38;100946.28;;;15.08;36.15
59391;BME280;53405;57.012;40.984;2023-06-10T12:48:23;100934.66;;;15.09;37.04
59391;BME280;53405;57.012;40.984;2023-06-10T12:50:54;100942.88;;;15.29;36.05
59391;BME280;53405;57.012;40.984;2023-06-10T12:53:23;100952.00;;;15.41;36.70
59391;BME280;53405;57.012;40.984;2023-06-10T12:55:51;100945.97;;;15.47;36.39
59391;BME280;53405;57.012;40.984;2023-06-10T12:58:20;100940.03;;;15.67;36.07
59391;BME280;53405;57.012;40.984;2023-06-10T13:00:48;100902.13;;;15.51;35.31
59391;BME280;53405;57.012;40.984;2023-06-10T13:03:18;100940.03;;;15.45;35.08
59391;BME280;53405;57.012;40.984;2023-06-10T13:05:46;100925.34;;;15.49;33.81
59391;BME280;53405;57.012;40.984;2023-06-10T13:08:14;100934.53;;;15.68;35.02